• Join FlightAware (Why Join?)
  • Login
  • US Flag 
10:36AM EST


 

Airport Tracker/Info


-or-


 

Live Flight TrackerFlight Track Log ✈ N724AE ✈ 07-Apr-2013 ✈ KSJT - KDFW

Flight Track Log - Related Links

Times and Time Zones

All times are in EDT time to prevent confusion due to time zone crossing. See the N724AE flight status page for this flight to view local times or setup timezone preferences in your user account.

Time Position Orientation Groundspeed Altitude Reporting Facility
EDT Latitude Longitude Course Direction KTS MPH feet Rate Location/Type
02:06PM 31.3597 -100.3033 67° East 299 344 9,800  Level Fort Worth Center
02:07PM 31.3994 -100.1975 66° East 304 350 11,200 1,140 Climbing Fort Worth Center
02:08PM 31.4436 -100.0894 64° Northeast 330 380 12,200 1,020 Climbing Fort Worth Center
02:09PM 31.5903 -99.7853 67° East  Level FlightAware Approximate
02:09PM 31.4547 -99.9606 84° East 378 435 13,300  Level Fort Worth Center
02:10PM 31.6264 -99.6861 67° East  Level FlightAware Approximate
02:10PM 31.4656 -99.8294 84° East 390 449 14,800  Level Fort Worth Center
02:11PM 31.6625 -99.5869 67° East  Level FlightAware Approximate
02:11PM 31.5097 -99.7014 68° East 401 461 16,300  Level Fort Worth Center
02:12PM 31.5558 -99.5733 67° East 408 470 17,800 1,560 Climbing Fort Worth Center
02:13PM 31.6061 -99.4453 65° Northeast 424 488 19,400 1,500 Climbing Fort Worth Center
02:14PM 31.6497 -99.3169 68° East 424 488 20,900 1,440 Climbing Fort Worth Center
02:15PM 31.6997 -99.1786 67° East 431 496 22,400 1,020 Climbing Fort Worth Center
02:16PM 31.7497 -99.0428 67° East 443 510 23,000 300 Climbing Fort Worth Center
02:17PM 31.8017 -98.8947 68° East 462 532 23,000  Level Fort Worth Center
02:18PM 31.8533 -98.7489 67° East 475 547 23,000  Level Fort Worth Center
02:19PM 31.9089 -98.6125 64° Northeast 475 547 23,000  Level Fort Worth Center
02:20PM 31.9792 -98.4714 60° Northeast 480 552 23,000  Level Fort Worth Center
02:21PM 32.0533 -98.3375 57° Northeast 485 558 23,000  Level Fort Worth Center
02:22PM 32.1231 -98.2033 58° Northeast 485 558 23,000 -660 Level Fort Worth Center
02:23PM 32.1886 -98.0664 60° Northeast 485 558 21,700 -2,040 Descending Fort Worth Center
02:24PM 32.2478 -97.9514 59° Northeast 465 535 19,000 -3,000 Descending Fort Worth Center
02:25PM 32.3150 -97.8142 60° Northeast 440 506 15,800 -2,580 Descending Fort Worth Center
02:26PM 32.3633 -97.7208 58° Northeast 426 490 13,900 -2,340 Descending Fort Worth Center
02:27PM 32.4303 -97.5833 60° Northeast 407 468 11,100 -1,440 Descending Fort Worth Center
02:28PM 32.4742 -97.4997 58° Northeast 359 413 11,000 -60 Descending Fort Worth Center
02:29PM 32.5453 -97.4158 45° Northeast 324 373 11,000  Level Fort Worth Center
02:30PM 32.6036 -97.3469 45° Northeast 318 366 11,000  Level Fort Worth Center
02:31PM 32.6706 -97.2653 46° Northeast 312 359 11,000  Level Fort Worth Center
02:32PM 32.7206 -97.2036 46° Northeast 295 339 11,000 -60 Level Fort Worth Center
02:33PM 32.7892 -97.1689 23° Northeast 273 314 10,900 -420 Descending Fort Worth Center
02:34PM 32.8644 -97.1661 North 266 306 10,200 -1,260 Descending Fort Worth Center
02:35PM 32.9417 -97.1658 360° North 261 300 8,500 -1,740 Descending Fort Worth Center
02:36PM 33.0147 -97.1633 North 261 300 6,800 -2,040 Descending Fort Worth Center
02:37PM 33.0878 -97.1631 360° North 248 285 4,400 -1,920 Descending Fort Worth Center
02:38PM 33.1461 -97.1553 North 242 278 3,100 -720 Descending Fort Worth Center
02:39PM 33.1669 -97.1008 65° Northeast 186 214 3,000 -120 Descending Fort Worth Center